Time;durP1;ratioP1;P1;durP2;ratioP2;P2;SDS_P1;SDS_P2;PMS_P1;PMS_P2;Temp;Humidity;BMP_temperature;BMP_pressure;BME280_temperature;BME280_humidity;BME280_pressure;Samples;Min_cycle;Max_cycle;Signal;HPM_P1;HPM_P2
2021/12/23 00:00:44;;;;;;;36.28;21.25;;;;;;;-3.17;100.00;101706.91;5112124;28;20028;-84
2021/12/23 00:03:09;;;;;;;40.47;20.77;;;;;;;-3.15;100.00;101706.94;5115139;28;20035;-84
2021/12/23 00:05:35;;;;;;;38.88;21.50;;;;;;;-3.18;100.00;101709.38;5114084;28;20028;-84
2021/12/23 00:08:00;;;;;;;39.15;20.92;;;;;;;-3.22;100.00;101697.28;5110734;28;20040;-84
2021/12/23 00:10:26;;;;;;;44.25;21.42;;;;;;;-3.22;100.00;101689.63;5106750;28;20459;-85
2021/12/23 00:12:51;;;;;;;36.88;20.05;;;;;;;-3.23;100.00;101683.66;5115251;28;20027;-85
2021/12/23 00:18:00;;;;;;;41.30;20.73;;;;;;;-3.29;100.00;101683.38;5114748;28;20032;-85
2021/12/23 00:25:45;;;;;;;38.70;21.13;;;;;;;-3.33;100.00;101668.75;5109514;28;20043;-84
2021/12/23 00:28:11;;;;;;;44.90;21.55;;;;;;;-3.34;100.00;101656.78;5093165;28;20044;-85
2021/12/23 00:30:36;;;;;;;41.22;21.33;;;;;;;-3.34;100.00;101659.31;5110874;28;20020;-85
2021/12/23 00:33:01;;;;;;;35.50;19.42;;;;;;;-3.27;100.00;101647.72;5114827;28;20092;-84
2021/12/23 00:35:27;;;;;;;39.75;21.35;;;;;;;-3.24;100.00;101638.53;5111629;28;20104;-84
2021/12/23 00:37:59;;;;;;;38.30;19.60;;;;;;;-3.19;100.00;101626.00;5110363;28;20387;-85
2021/12/23 00:40:24;;;;;;;37.50;21.13;;;;;;;-3.16;100.00;101627.00;5112800;28;20019;-85
2021/12/23 00:42:50;;;;;;;36.97;20.00;;;;;;;-3.14;100.00;101629.63;5113815;27;20102;-85
2021/12/23 00:45:15;;;;;;;36.58;19.23;;;;;;;-3.18;100.00;101623.50;5114530;28;20080;-85
2021/12/23 00:47:40;;;;;;;39.17;20.42;;;;;;;-3.16;100.00;101627.00;5113123;28;20031;-84
2021/12/23 00:50:06;;;;;;;35.50;19.83;;;;;;;-3.13;100.00;101621.19;5113690;28;20027;-84
2021/12/23 00:52:35;;;;;;;37.25;19.88;;;;;;;-3.13;100.00;101619.50;5098500;28;20020;-84
2021/12/23 00:55:04;;;;;;;35.50;19.20;;;;;;;-3.06;100.00;101613.00;5105772;28;20077;-85
2021/12/23 00:57:31;;;;;;;35.90;18.63;;;;;;;-3.06;100.00;101610.44;5101703;28;20024;-84
2021/12/23 00:59:58;;;;;;;39.50;19.67;;;;;;;-3.02;100.00;101614.88;5093860;28;20089;-84
2021/12/23 01:02:29;;;;;;;41.47;20.60;;;;;;;-3.06;100.00;101618.97;5093704;28;20137;-85
2021/12/23 01:04:55;;;;;;;38.40;20.05;;;;;;;-3.02;100.00;101635.28;5098211;28;20046;-84
2021/12/23 01:07:20;;;;;;;35.75;19.13;;;;;;;-3.02;100.00;101637.81;5101962;28;20471;-83
2021/12/23 01:09:46;;;;;;;36.42;19.42;;;;;;;-3.01;100.00;101625.94;5092862;28;20040;-84
2021/12/23 01:12:14;;;;;;;37.38;18.98;;;;;;;-2.97;100.00;101631.25;5108258;28;20425;-83
2021/12/23 01:14:54;;;;;;;35.92;19.80;;;;;;;-2.98;100.00;101620.97;5113600;28;20028;-84
2021/12/23 01:19:51;;;;;;;34.83;18.75;;;;;;;-2.96;100.00;101629.56;5110206;28;20086;-84
2021/12/23 01:22:18;;;;;;;37.72;19.17;;;;;;;-2.95;100.00;101621.97;5113672;28;20107;-84
2021/12/23 01:24:44;;;;;;;35.00;19.40;;;;;;;-2.97;100.00;101615.09;5110085;28;20061;-84
2021/12/23 01:27:10;;;;;;;33.83;19.23;;;;;;;-3.00;100.00;101602.19;5093986;28;20032;-84
2021/12/23 01:29:35;;;;;;;39.72;20.05;;;;;;;-2.98;100.00;101615.88;5092860;28;20086;-83
2021/12/23 01:32:04;;;;;;;37.90;20.00;;;;;;;-3.02;100.00;101608.91;5092069;28;20085;-85
2021/12/23 01:34:30;;;;;;;33.40;18.63;;;;;;;-2.98;100.00;101610.78;5110820;28;20031;-85
2021/12/23 01:36:56;;;;;;;40.15;19.70;;;;;;;-3.02;100.00;101596.13;5093936;28;20042;-84
2021/12/23 01:39:21;;;;;;;35.67;20.67;;;;;;;-2.96;100.00;101598.97;5092515;28;20111;-84
2021/12/23 01:41:47;;;;;;;36.08;20.45;;;;;;;-2.94;100.00;101599.91;5091947;28;20108;-84
2021/12/23 01:44:12;;;;;;;38.42;18.80;;;;;;;-2.95;100.00;101582.84;5093000;28;20077;-85
2021/12/23 01:46:38;;;;;;;36.38;19.83;;;;;;;-2.90;100.00;101587.34;5105275;28;20085;-84
2021/12/23 01:49:03;;;;;;;41.15;20.77;;;;;;;-2.88;100.00;101589.94;5108018;28;20020;-84
2021/12/23 01:51:29;;;;;;;35.53;19.80;;;;;;;-2.86;100.00;101583.25;5092296;28;20115;-84
2021/12/23 01:53:54;;;;;;;39.13;20.10;;;;;;;-2.88;100.00;101566.97;5092000;28;20476;-85
2021/12/23 01:56:19;;;;;;;37.28;19.85;;;;;;;-2.84;100.00;101573.97;5106657;28;20023;-84
2021/12/23 01:58:45;;;;;;;37.17;20.17;;;;;;;-2.85;100.00;101559.44;5112693;28;20391;-85
2021/12/23 02:01:11;;;;;;;38.60;19.45;;;;;;;-2.87;100.00;101567.06;5109728;28;20031;-85
2021/12/23 02:03:38;;;;;;;32.05;19.23;;;;;;;-2.92;100.00;101567.66;5109391;28;20105;-85
2021/12/23 02:06:04;;;;;;;42.70;20.17;;;;;;;-2.94;100.00;101554.00;5104530;28;20062;-84
2021/12/23 02:08:30;;;;;;;36.08;20.48;;;;;;;-2.92;100.00;101555.78;5095618;28;20464;-85
2021/12/23 02:10:56;;;;;;;39.50;19.98;;;;;;;-2.95;100.00;101549.66;5092007;28;20035;-84
2021/12/23 02:13:22;;;;;;;35.67;19.10;;;;;;;-2.99;100.00;101547.81;5091543;28;20028;-84
2021/12/23 02:15:48;;;;;;;34.22;19.10;;;;;;;-3.01;100.00;101546.84;5092998;28;20024;-84
2021/12/23 02:18:13;;;;;;;42.17;20.77;;;;;;;-3.06;100.00;101542.44;5092183;28;20089;-84
2021/12/23 02:20:39;;;;;;;39.08;21.60;;;;;;;-3.08;100.00;101549.13;5091011;28;20019;-84
2021/12/23 02:23:08;;;;;;;35.58;19.40;;;;;;;-3.10;100.00;101540.56;5103260;28;20046;-85
2021/12/23 02:25:34;;;;;;;40.53;20.83;;;;;;;-3.11;100.00;101540.47;5108268;28;20047;-85
2021/12/23 02:28:04;;;;;;;40.20;20.55;;;;;;;-3.12;100.00;101547.28;5110325;28;20399;-84
2021/12/23 02:30:30;;;;;;;36.22;19.65;;;;;;;-3.12;100.00;101554.06;5104012;28;20032;-84
2021/12/23 02:32:56;;;;;;;36.47;19.70;;;;;;;-3.17;100.00;101543.66;5092130;28;20028;-84
2021/12/23 02:35:23;;;;;;;36.97;20.33;;;;;;;-3.17;100.00;101556.41;5092885;28;20037;-84
2021/12/23 02:37:49;;;;;;;40.08;20.58;;;;;;;-3.21;100.00;101546.84;5112320;28;20078;-84
2021/12/23 02:40:37;;;;;;;40.03;20.58;;;;;;;-3.27;100.00;101554.28;5098306;28;20487;-84
2021/12/23 02:43:17;;;;;;;39.10;20.83;;;;;;;-3.33;100.00;101556.53;5108697;28;20092;-84
2021/12/23 02:45:44;;;;;;;39.80;20.67;;;;;;;-3.39;100.00;101562.25;5102523;28;20093;-84
2021/12/23 02:48:18;;;;;;;41.35;20.70;;;;;;;-3.46;100.00;101541.50;5092526;28;20028;-84
2021/12/23 02:50:47;;;;;;;40.20;21.75;;;;;;;-3.52;100.00;101542.09;5091620;28;20040;-84
2021/12/23 02:53:12;;;;;;;42.72;21.67;;;;;;;-3.58;100.00;101542.69;5091863;28;20108;-84
2021/12/23 02:55:37;;;;;;;36.15;20.38;;;;;;;-3.63;100.00;101533.97;5100134;28;20111;-84
2021/12/23 02:58:04;;;;;;;39.90;19.98;;;;;;;-3.64;100.00;101529.66;5092814;28;20031;-84
2021/12/23 03:00:30;;;;;;;34.78;19.30;;;;;;;-3.70;100.00;101518.31;5091156;28;20103;-84
2021/12/23 03:02:55;;;;;;;37.22;20.27;;;;;;;-3.71;100.00;101522.56;5091102;28;20494;-84
2021/12/23 03:05:21;;;;;;;39.65;21.38;;;;;;;-3.76;100.00;101516.41;5091896;28;20032;-84
2021/12/23 03:07:46;;;;;;;42.22;21.92;;;;;;;-3.75;100.00;101520.69;5092319;28;20059;-84
2021/12/23 03:10:11;;;;;;;40.78;20.15;;;;;;;-3.80;100.00;101505.16;5105221;28;20023;-83
2021/12/23 03:12:37;;;;;;;42.05;21.67;;;;;;;-3.80;100.00;101511.94;5111481;28;20356;-84
2021/12/23 03:15:03;;;;;;;39.58;21.73;;;;;;;-3.81;100.00;101511.06;5111885;28;20027;-85
2021/12/23 03:17:30;;;;;;;41.30;22.35;;;;;;;-3.76;100.00;101503.66;5108003;28;20027;-84
2021/12/23 03:19:55;;;;;;;38.78;21.70;;;;;;;-3.80;100.00;101501.75;5111632;28;20042;-85
2021/12/23 03:22:20;;;;;;;40.63;20.33;;;;;;;-3.80;100.00;101491.56;5111082;28;20028;-84
2021/12/23 03:24:46;;;;;;;40.47;21.98;;;;;;;-3.72;100.00;101495.34;5098186;28;20035;-84
2021/12/23 03:27:11;;;;;;;41.95;21.77;;;;;;;-3.72;100.00;101490.25;5093248;28;20044;-84
2021/12/23 03:29:36;;;;;;;39.65;21.00;;;;;;;-3.74;100.00;101489.28;5111069;28;20071;-84
2021/12/23 03:32:03;;;;;;;41.10;22.42;;;;;;;-3.78;100.00;101472.13;5111303;28;20020;-84
2021/12/23 03:34:28;;;;;;;43.78;21.73;;;;;;;-3.77;100.00;101471.31;5111447;28;20058;-84
2021/12/23 03:36:53;;;;;;;41.90;22.75;;;;;;;-3.76;100.00;101455.25;5111038;28;20479;-84
2021/12/23 03:39:19;;;;;;;41.63;22.63;;;;;;;-3.72;100.00;101452.03;5097688;28;20069;-84
2021/12/23 03:41:45;;;;;;;48.30;24.17;;;;;;;-3.74;100.00;101463.81;5091616;28;20027;-83
2021/12/23 03:44:10;;;;;;;47.53;22.50;;;;;;;-3.66;100.00;101464.13;5111117;28;20030;-84
2021/12/23 03:46:37;;;;;;;41.60;21.17;;;;;;;-3.59;100.00;101450.88;5108226;28;20015;-84
2021/12/23 03:49:04;;;;;;;47.53;23.73;;;;;;;-3.53;100.00;101439.28;5109710;28;20114;-84
2021/12/23 03:51:29;;;;;;;44.55;23.38;;;;;;;-3.50;100.00;101430.88;5111251;28;20028;-84
2021/12/23 03:53:55;;;;;;;44.13;23.05;;;;;;;-3.44;100.00;101425.16;5096969;28;20032;-85
2021/12/23 03:56:20;;;;;;;45.13;24.67;;;;;;;-3.47;100.00;101425.03;5093223;28;20093;-83
2021/12/23 03:58:45;;;;;;;47.80;23.08;;;;;;;-3.38;100.00;101415.22;5106823;28;20035;-83
2021/12/23 04:01:11;;;;;;;44.75;24.48;;;;;;;-3.36;100.00;101413.63;5115530;28;20058;-84
2021/12/23 04:03:36;;;;;;;48.63;25.50;;;;;;;-3.36;100.00;101403.44;5114858;28;20023;-85
2021/12/23 04:06:02;;;;;;;48.00;23.42;;;;;;;-3.32;100.00;101415.50;5113172;28;20023;-84
2021/12/23 04:08:27;;;;;;;49.30;25.35;;;;;;;-3.27;100.00;101425.88;5124815;27;20467;-84
2021/12/23 04:10:52;;;;;;;47.47;24.10;;;;;;;-3.28;100.00;101396.97;5135804;27;20047;-84
2021/12/23 04:13:18;;;;;;;51.40;25.38;;;;;;;-3.15;100.00;101417.06;5126892;27;20043;-85
2021/12/23 04:15:43;;;;;;;46.80;23.77;;;;;;;-3.11;100.00;101410.41;5113616;28;20438;-84
2021/12/23 04:18:09;;;;;;;47.38;24.70;;;;;;;-3.07;100.00;101402.94;5113449;28;20474;-84
2021/12/23 04:20:45;;;;;;;47.85;25.75;;;;;;;-3.09;100.00;101391.81;5096826;28;20059;-84
2021/12/23 04:23:11;;;;;;;51.63;24.60;;;;;;;-3.04;100.00;101380.91;5103980;28;20055;-84
2021/12/23 04:25:36;;;;;;;45.40;24.77;;;;;;;-3.02;100.00;101389.50;5114278;28;20066;-84
2021/12/23 04:28:02;;;;;;;50.47;24.65;;;;;;;-3.04;100.00;101393.66;5093407;28;20052;-83
2021/12/23 04:30:28;;;;;;;46.35;24.05;;;;;;;-3.03;100.00;101403.94;5094012;28;20020;-83
2021/12/23 04:32:55;;;;;;;52.22;24.85;;;;;;;-3.07;100.00;101413.16;5094465;28;20016;-84
2021/12/23 04:35:21;;;;;;;49.05;25.20;;;;;;;-3.13;100.00;101406.94;5093673;28;20028;-85
2021/12/23 04:37:46;;;;;;;49.85;24.55;;;;;;;-3.17;100.00;101405.03;5106400;28;20035;-84
2021/12/23 04:40:12;;;;;;;49.38;25.88;;;;;;;-3.19;100.00;101381.16;5104611;28;20371;-85
2021/12/23 04:42:39;;;;;;;53.08;26.73;;;;;;;-3.21;100.00;101381.09;5113136;27;20390;-84
2021/12/23 04:45:05;;;;;;;47.38;25.20;;;;;;;-3.21;100.00;101386.19;5105901;28;20027;-84
2021/12/23 04:47:31;;;;;;;51.70;25.80;;;;;;;-3.15;100.00;101380.47;5098345;28;20114;-84
2021/12/23 04:49:56;;;;;;;57.35;28.90;;;;;;;-3.13;100.00;101350.81;5093321;28;20103;-84
2021/12/23 04:52:21;;;;;;;52.03;26.20;;;;;;;-3.14;100.00;101341.41;5095325;28;20077;-84
2021/12/23 04:54:47;;;;;;;51.00;26.55;;;;;;;-3.09;100.00;101355.22;5112895;28;20379;-84
2021/12/23 04:57:12;;;;;;;54.25;26.73;;;;;;;-3.07;100.00;101361.28;5098135;28;20032;-84
2021/12/23 04:59:37;;;;;;;49.65;26.85;;;;;;;-3.03;100.00;101357.16;5093299;28;20032;-84
2021/12/23 05:02:02;;;;;;;51.05;26.73;;;;;;;-2.99;100.00;101352.22;5102341;28;20027;-84
2021/12/23 05:04:28;;;;;;;52.92;28.30;;;;;;;-2.97;100.00;101337.00;5113547;28;20066;-83
2021/12/23 05:06:53;;;;;;;53.83;28.08;;;;;;;-2.95;100.00;101332.81;5105309;28;20047;-84
2021/12/23 05:09:18;;;;;;;54.25;28.48;;;;;;;-2.92;100.00;101340.59;5110361;28;20480;-84
2021/12/23 05:11:44;;;;;;;60.10;29.73;;;;;;;-2.91;100.00;101334.66;5113403;28;20449;-84
2021/12/23 05:14:10;;;;;;;55.30;29.40;;;;;;;-2.87;100.00;101329.75;5113200;28;20049;-84
2021/12/23 05:16:36;;;;;;;57.45;29.95;;;;;;;-2.85;100.00;101332.34;5110776;27;20077;-85
2021/12/23 05:19:01;;;;;;;57.20;29.92;;;;;;;-2.84;100.00;101332.44;5113811;28;20459;-84
2021/12/23 05:21:26;;;;;;;62.05;29.10;;;;;;;-2.82;100.00;101340.13;5106443;28;20042;-85
2021/12/23 05:23:52;;;;;;;60.88;30.35;;;;;;;-2.82;100.00;101328.22;5092481;28;20460;-85
2021/12/23 05:26:17;;;;;;;58.42;29.92;;;;;;;-2.80;100.00;101320.66;5093586;28;20115;-84
2021/12/23 05:28:42;;;;;;;61.25;30.73;;;;;;;-2.80;100.00;101319.78;5092618;28;20048;-84
2021/12/23 05:31:07;;;;;;;63.63;30.55;;;;;;;-2.78;100.00;101313.03;5092528;28;20025;-84
2021/12/23 05:33:33;;;;;;;56.65;28.17;;;;;;;-2.80;100.00;101315.56;5092974;28;20434;-84
2021/12/23 05:36:00;;;;;;;52.70;26.70;;;;;;;-2.77;100.00;101308.00;5110991;28;20043;-85
2021/12/23 05:38:25;;;;;;;56.10;27.60;;;;;;;-2.76;100.00;101312.28;5091205;28;20032;-85
2021/12/23 05:40:51;;;;;;;56.88;27.02;;;;;;;-2.75;100.00;101321.69;5095725;28;20031;-84
2021/12/23 05:43:16;;;;;;;56.47;28.23;;;;;;;-2.75;100.00;101306.38;5092557;28;20031;-84
2021/12/23 05:45:41;;;;;;;52.70;26.70;;;;;;;-2.76;100.00;101301.22;5091595;28;20028;-84
2021/12/23 05:48:07;;;;;;;53.60;26.50;;;;;;;-2.71;100.00;101305.69;5112127;28;20028;-85
2021/12/23 05:50:32;;;;;;;52.17;26.55;;;;;;;-2.69;100.00;101298.94;5092888;28;20028;-85
2021/12/23 05:52:58;;;;;;;53.20;26.33;;;;;;;-2.69;100.00;101283.63;5107795;28;20080;-84
2021/12/23 05:55:23;;;;;;;53.05;27.20;;;;;;;-2.70;100.00;101274.25;5112978;28;20036;-84
2021/12/23 05:57:49;;;;;;;55.25;26.40;;;;;;;-2.67;100.00;101294.78;5096261;28;20463;-84
2021/12/23 06:00:19;;;;;;;52.33;26.25;;;;;;;-2.69;100.00;101292.97;5091881;28;20028;-84
2021/12/23 06:02:44;;;;;;;49.80;25.60;;;;;;;-2.69;100.00;101305.75;5109188;28;20767;-84
2021/12/23 06:05:10;;;;;;;56.03;26.52;;;;;;;-2.69;100.00;101301.50;5112312;28;20031;-85
2021/12/23 06:07:35;;;;;;;55.33;26.92;;;;;;;-2.73;100.00;101299.66;5095428;28;20028;-84
2021/12/23 06:10:01;;;;;;;52.58;25.27;;;;;;;-2.71;100.00;101304.84;5110183;28;20039;-84
2021/12/23 06:12:26;;;;;;;54.58;26.20;;;;;;;-2.74;100.00;101307.28;5111384;28;20027;-85
2021/12/23 06:14:52;;;;;;;52.53;26.58;;;;;;;-2.71;100.00;101321.00;5112928;28;20029;-85
2021/12/23 06:17:17;;;;;;;55.05;26.42;;;;;;;-2.71;100.00;101294.63;5095834;28;20028;-84
2021/12/23 06:19:42;;;;;;;52.00;25.17;;;;;;;-2.77;100.00;101287.59;5091074;28;20032;-84
2021/12/23 06:22:08;;;;;;;53.63;26.30;;;;;;;-2.76;100.00;101280.81;5096653;28;20087;-84
2021/12/23 06:24:33;;;;;;;57.63;26.65;;;;;;;-2.74;100.00;101285.16;5091587;28;20062;-85
2021/12/23 06:26:58;;;;;;;55.97;25.92;;;;;;;-2.75;100.00;101283.41;5093350;28;20028;-85
2021/12/23 06:29:24;;;;;;;54.30;26.55;;;;;;;-2.78;100.00;101267.09;5092211;28;20070;-84
2021/12/23 06:31:49;;;;;;;55.78;26.08;;;;;;;-2.76;100.00;101270.59;5092860;28;20456;-84
2021/12/23 06:34:14;;;;;;;55.92;26.15;;;;;;;-2.75;100.00;101272.31;5111418;28;20035;-85
2021/12/23 06:36:43;;;;;;;58.58;27.05;;;;;;;-2.76;100.00;101265.50;5108187;28;20486;-84
2021/12/23 06:39:08;;;;;;;57.63;27.00;;;;;;;-2.79;100.00;101261.13;5112339;28;20027;-84
2021/12/23 06:41:33;;;;;;;56.25;26.98;;;;;;;-2.77;100.00;101268.88;5110485;28;20036;-84
2021/12/23 06:43:59;;;;;;;60.08;26.67;;;;;;;-2.74;100.00;101251.13;5112347;28;20031;-84
2021/12/23 06:46:24;;;;;;;54.80;26.10;;;;;;;-2.75;100.00;101245.13;5110323;28;20031;-85
2021/12/23 06:48:49;;;;;;;54.95;25.75;;;;;;;-2.71;100.00;101241.91;5092265;28;20061;-84
2021/12/23 06:51:15;;;;;;;47.85;24.45;;;;;;;-2.67;100.00;101250.53;5103871;28;20051;-85
2021/12/23 06:53:40;;;;;;;54.58;26.00;;;;;;;-2.65;100.00;101251.44;5111809;28;20411;-84
2021/12/23 06:56:05;;;;;;;59.03;26.58;;;;;;;-2.59;100.00;101251.66;5110523;28;20023;-84
2021/12/23 06:58:32;;;;;;;55.08;26.67;;;;;;;-2.56;100.00;101248.34;5091655;28;20028;-85
2021/12/23 07:00:58;;;;;;;57.25;26.08;;;;;;;-2.49;100.00;101247.75;5092649;28;20530;-84
2021/12/23 07:03:30;;;;;;;52.17;24.63;;;;;;;-2.45;100.00;101254.75;5091080;28;20056;-84
2021/12/23 07:06:04;;;;;;;52.23;24.90;;;;;;;-2.42;100.00;101255.72;5097213;28;20102;-85
2021/12/23 07:08:30;;;;;;;56.95;24.63;;;;;;;-2.38;100.00;101254.13;5097751;28;20110;-85
2021/12/23 07:10:55;;;;;;;57.95;24.98;;;;;;;-2.37;100.00;101260.97;5111401;28;20038;-84
2021/12/23 07:13:21;;;;;;;53.28;24.63;;;;;;;-2.33;100.00;101262.81;5110584;28;20106;-84
2021/12/23 07:15:47;;;;;;;57.42;26.23;;;;;;;-2.32;100.00;101253.47;5110984;28;20032;-84
2021/12/23 07:18:13;;;;;;;56.00;25.27;;;;;;;-2.32;100.00;101238.13;5092227;28;20032;-85
2021/12/23 07:20:38;;;;;;;53.63;25.13;;;;;;;-2.31;100.00;101238.22;5091971;28;20035;-84
2021/12/23 07:23:03;;;;;;;51.03;25.05;;;;;;;-2.28;100.00;101245.97;5096744;28;20374;-85
2021/12/23 07:25:28;;;;;;;52.63;25.10;;;;;;;-2.26;100.00;101248.56;5108489;28;20039;-84
2021/12/23 07:27:54;;;;;;;55.78;26.10;;;;;;;-2.26;100.00;101244.31;5092240;28;20036;-84
2021/12/23 07:30:21;;;;;;;55.83;26.75;;;;;;;-2.25;99.65;101245.22;5091784;28;20427;-84
2021/12/23 07:32:49;;;;;;;54.22;25.05;;;;;;;-2.26;99.81;101241.78;5095043;28;20031;-84
2021/12/23 07:35:14;;;;;;;52.00;24.95;;;;;;;-2.21;99.82;101242.81;5095715;28;20064;-85
2021/12/23 07:37:40;;;;;;;52.40;25.05;;;;;;;-2.19;99.54;101253.06;5102827;28;20027;-85
2021/12/23 07:40:06;;;;;;;56.38;25.23;;;;;;;-2.19;99.75;101255.63;5105254;28;20111;-85
2021/12/23 07:42:33;;;;;;;51.72;24.90;;;;;;;-2.17;99.79;101256.56;5094686;28;20073;-85
2021/12/23 07:45:01;;;;;;;58.00;24.38;;;;;;;-2.15;99.22;101250.69;5098628;28;20387;-85
2021/12/23 07:47:27;;;;;;;55.03;26.35;;;;;;;-2.12;99.32;101248.25;5094806;28;20523;-84
2021/12/23 07:49:52;;;;;;;50.35;24.23;;;;;;;-2.10;99.58;101260.19;5096144;28;20103;-84
2021/12/23 07:52:17;;;;;;;50.85;23.80;;;;;;;-2.11;99.30;101254.22;5094540;28;20103;-85
2021/12/23 07:54:43;;;;;;;52.53;24.75;;;;;;;-2.06;99.49;101256.94;5105272;28;20092;-85
2021/12/23 07:57:08;;;;;;;57.08;24.15;;;;;;;-2.06;99.57;101259.47;5112632;28;20019;-84
2021/12/23 07:59:33;;;;;;;51.88;25.05;;;;;;;-2.15;99.88;101227.72;5113456;28;20062;-84
2021/12/23 08:01:59;;;;;;;49.47;24.23;;;;;;;-2.04;99.37;101237.41;5114115;28;20111;-84
2021/12/23 08:04:25;;;;;;;56.80;25.17;;;;;;;-2.03;99.63;101232.34;5106779;28;20030;-84
2021/12/23 08:06:57;;;;;;;50.42;25.63;;;;;;;-2.02;99.56;101223.03;5094303;28;20028;-84
2021/12/23 08:09:27;;;;;;;57.53;25.52;;;;;;;-1.95;99.87;101230.06;5095291;28;20030;-85
2021/12/23 08:11:53;;;;;;;54.42;24.58;;;;;;;-1.92;99.38;101231.03;5100700;28;20020;-84
2021/12/23 08:14:18;;;;;;;57.42;26.60;;;;;;;-1.92;99.19;101233.59;5099420;28;20023;-84
2021/12/23 08:16:43;;;;;;;52.65;25.40;;;;;;;-1.89;99.23;101243.91;5114027;28;20485;-84
2021/12/23 08:19:10;;;;;;;53.58;23.77;;;;;;;-1.91;99.38;101235.31;5114182;28;20039;-84
2021/12/23 08:21:35;;;;;;;51.80;25.17;;;;;;;-1.88;99.31;101232.88;5113037;27;20019;-84
2021/12/23 08:24:00;;;;;;;52.08;24.80;;;;;;;-1.83;99.61;101232.16;5097643;28;20047;-84
2021/12/23 08:26:29;;;;;;;58.70;25.92;;;;;;;-1.82;99.19;101228.78;5113945;28;20386;-84
2021/12/23 08:28:55;;;;;;;53.00;25.42;;;;;;;-1.80;99.39;101224.59;5114713;28;20048;-85
2021/12/23 08:31:21;;;;;;;53.03;24.73;;;;;;;-1.78;99.99;101216.16;5114983;28;20031;-84
2021/12/23 08:33:47;;;;;;;49.58;24.50;;;;;;;-1.74;99.37;101220.53;5113599;28;20024;-85
2021/12/23 08:36:13;;;;;;;55.10;26.52;;;;;;;-1.71;99.43;101207.84;5114541;28;20053;-84
2021/12/23 08:38:40;;;;;;;54.08;25.60;;;;;;;-1.68;99.54;101202.84;5113484;28;20023;-85
2021/12/23 08:41:06;;;;;;;54.70;25.38;;;;;;;-1.58;99.52;101208.25;5113960;28;20102;-84
2021/12/23 08:43:31;;;;;;;54.88;24.58;;;;;;;-1.53;99.22;101205.03;5113048;28;20115;-84
2021/12/23 08:45:56;;;;;;;53.35;24.65;;;;;;;-1.48;99.12;101195.78;5114471;28;20031;-85
2021/12/23 08:48:21;;;;;;;52.28;25.10;;;;;;;-1.44;99.13;101187.44;5113768;28;20420;-84
2021/12/23 08:50:47;;;;;;;54.03;24.05;;;;;;;-1.38;99.23;101186.72;5114341;28;20019;-84
2021/12/23 08:53:12;;;;;;;50.75;24.75;;;;;;;-1.33;99.04;101187.75;5095298;28;20459;-84
2021/12/23 08:55:37;;;;;;;56.42;24.67;;;;;;;-1.32;98.54;101175.81;5113047;28;20072;-84
2021/12/23 08:58:04;;;;;;;51.40;24.38;;;;;;;-1.31;98.51;101186.13;5110187;28;20039;-85
2021/12/23 09:00:32;;;;;;;55.00;24.38;;;;;;;-1.33;98.96;101177.50;5098812;28;20360;-82
2021/12/23 09:02:57;;;;;;;56.05;25.60;;;;;;;-1.28;98.48;101178.50;5105317;28;20024;-87
2021/12/23 09:05:23;;;;;;;50.85;24.60;;;;;;;-1.28;98.87;101175.06;5108641;28;20038;-85
2021/12/23 09:07:50;;;;;;;52.33;24.73;;;;;;;-1.15;98.05;101189.09;5113687;28;20042;-87
2021/12/23 09:10:15;;;;;;;53.38;24.73;;;;;;;-1.07;98.32;101169.75;5113473;28;20030;-88
2021/12/23 09:12:41;;;;;;;53.15;25.05;;;;;;;-0.95;98.26;101175.19;5106664;28;20028;-85
2021/12/23 09:15:07;;;;;;;51.63;25.02;;;;;;;-0.86;97.15;101174.59;5092678;28;20030;-85
2021/12/23 09:17:33;;;;;;;53.10;24.83;;;;;;;-0.79;97.12;101177.38;5092845;28;20057;-86
2021/12/23 09:19:58;;;;;;;52.35;25.85;;;;;;;-0.80;96.90;101165.41;5099079;28;20039;-88
2021/12/23 09:22:23;;;;;;;52.00;24.17;;;;;;;-0.79;96.53;101164.56;5103682;28;20024;-86
2021/12/23 09:24:52;;;;;;;53.78;24.90;;;;;;;-0.73;96.22;101166.44;5093214;28;20141;-86
2021/12/23 09:33:06;;;;;;;52.72;23.92;;;;;;;-0.55;95.90;101168.66;5048405;28;20566;-87
2021/12/23 09:35:32;;;;;;;49.13;23.50;;;;;;;-0.54;95.35;101165.25;5074203;28;20036;-86
2021/12/23 09:37:59;;;;;;;51.97;23.13;;;;;;;-0.55;95.75;101159.25;5093324;28;20024;-86
2021/12/23 09:40:25;;;;;;;51.00;24.75;;;;;;;-0.48;95.78;101163.72;5092589;28;20020;-86
2021/12/23 09:42:52;;;;;;;49.67;24.35;;;;;;;-0.44;95.84;101156.13;5093376;28;20043;-85
2021/12/23 09:45:19;;;;;;;47.33;23.33;;;;;;;-0.41;95.41;101156.19;5092889;28;20035;-86
2021/12/23 09:47:47;;;;;;;48.55;23.17;;;;;;;-0.38;95.31;101143.47;5111145;28;20031;-86
2021/12/23 09:50:17;;;;;;;50.58;23.17;;;;;;;-0.33;95.06;101142.78;5113243;28;20023;-86
2021/12/23 09:52:48;;;;;;;48.78;22.90;;;;;;;-0.30;95.63;101136.84;5112780;28;20102;-85
2021/12/23 09:55:16;;;;;;;52.20;24.88;;;;;;;-0.26;95.68;101139.53;5112744;28;20051;-85
2021/12/23 09:57:48;;;;;;;50.72;23.05;;;;;;;-0.23;95.14;101143.84;5112131;27;20027;-86
2021/12/23 10:00:16;;;;;;;50.75;24.02;;;;;;;-0.25;94.73;101136.13;5112344;28;20051;-86
2021/12/23 10:02:42;;;;;;;53.63;24.42;;;;;;;-0.25;95.10;101127.59;5112488;28;20024;-86
2021/12/23 10:05:29;;;;;;;51.25;23.08;;;;;;;-0.25;95.80;101125.88;5109526;28;20069;-85
2021/12/23 10:07:55;;;;;;;50.08;24.58;;;;;;;-0.23;95.87;101118.22;5092442;28;20081;-85
2021/12/23 10:10:42;;;;;;;46.85;22.85;;;;;;;-0.20;95.93;101128.53;5092763;28;20042;-86
2021/12/23 10:30:18;;;;;;;51.20;23.90;;;;;;;0.08;94.88;101109.59;5090911;28;20039;-86
2021/12/23 10:38:04;;;;;;;46.50;22.45;;;;;;;0.25;94.35;101068.09;5112690;28;20489;-86
2021/12/23 10:40:31;;;;;;;48.63;22.70;;;;;;;0.27;95.02;101053.63;5111207;28;20038;-87
2021/12/23 10:42:57;;;;;;;48.67;23.40;;;;;;;0.38;94.24;101050.44;5112295;28;20019;-87
2021/12/23 10:45:22;;;;;;;48.60;23.08;;;;;;;0.49;93.70;101042.97;5103391;28;20024;-85
2021/12/23 10:48:05;;;;;;;47.08;22.42;;;;;;;0.61;93.90;101039.78;5100427;28;20032;-86
2021/12/23 10:50:40;;;;;;;45.80;22.38;;;;;;;0.73;92.46;101029.78;5106378;28;20106;-86
2021/12/23 10:53:12;;;;;;;44.05;21.67;;;;;;;0.77;92.56;101025.56;5111902;28;20024;-86
2021/12/23 10:58:22;;;;;;;48.08;23.25;;;;;;;0.83;92.53;101012.84;5106657;28;20035;-86
2021/12/23 11:00:55;;;;;;;46.88;21.40;;;;;;;0.90;92.60;101024.94;5109931;28;20020;-86
2021/12/23 11:03:31;;;;;;;50.17;22.33;;;;;;;0.98;92.17;101031.13;5109215;28;20051;-86
2021/12/23 11:29:12;;;;;;;41.35;21.52;;;;;;;1.80;91.62;100979.38;5112825;28;20406;-87
2021/12/23 11:35:47;;;;;;;;;;;;;;;1.82;92.68;100969.97;5114201;28;20449;-87
2021/12/23 11:37:35;;;;;;;39.72;19.00;;;;;;;1.84;90.57;100958.00;5098007;28;20473;-88
2021/12/23 11:40:51;;;;;;;48.35;22.83;;;;;;;1.81;90.73;100943.38;5111286;28;20148;-87
2021/12/23 11:43:13;;;;;;;41.58;20.75;;;;;;;1.94;91.01;100953.84;5111930;28;20042;-87
2021/12/23 11:45:38;;;;;;;47.55;22.00;;;;;;;2.05;90.24;100939.41;5114962;28;20046;-87
2021/12/23 11:48:06;;;;;;;44.97;21.65;;;;;;;2.08;90.36;100922.31;5115308;28;20204;-88
2021/12/23 11:50:41;;;;;;;47.08;22.58;;;;;;;2.22;89.44;100931.91;5104005;28;20427;-87
2021/12/23 11:53:08;;;;;;;44.53;21.50;;;;;;;2.23;88.66;100924.22;5099856;28;20031;-90
2021/12/23 11:55:35;;;;;;;44.70;21.95;;;;;;;2.29;88.27;100918.28;5114963;28;20031;-86
2021/12/23 11:58:00;;;;;;;42.38;21.70;;;;;;;2.31;88.72;100916.59;5114237;28;20035;-87
2021/12/23 12:00:41;;;;;;;44.38;21.30;;;;;;;2.32;89.96;100908.91;5096887;28;20384;-92
2021/12/23 12:03:08;;;;;;;43.53;20.00;;;;;;;2.39;90.08;100903.78;5115272;28;20090;-90
2021/12/23 12:05:34;;;;;;;42.72;20.75;;;;;;;2.37;88.54;100890.06;5114078;28;20118;-90
2021/12/23 12:08:10;;;;;;;37.88;19.00;;;;;;;2.40;89.11;100903.81;5109726;28;20557;-90
2021/12/23 12:10:40;;;;;;;39.40;20.00;;;;;;;2.42;88.61;100912.44;5094319;28;20051;-88